sensor_id;sensor_type;location;lat;lon;timestamp;temperature;humidity
30899;DHT22;17914;52.484;13.424;2024-02-14T00:00:23;21.60;51.60
30899;DHT22;17914;52.484;13.424;2024-02-14T00:02:52;21.60;51.40
30899;DHT22;17914;52.484;13.424;2024-02-14T00:05:20;21.50;51.30
30899;DHT22;17914;52.484;13.424;2024-02-14T00:07:50;21.50;51.30
30899;DHT22;17914;52.484;13.424;2024-02-14T00:10:18;21.50;51.10
30899;DHT22;17914;52.484;13.424;2024-02-14T00:12:46;21.50;50.90
30899;DHT22;17914;52.484;13.424;2024-02-14T00:15:14;21.50;50.90
30899;DHT22;17914;52.484;13.424;2024-02-14T00:17:43;21.50;50.70
30899;DHT22;17914;52.484;13.424;2024-02-14T00:20:11;21.40;50.60
30899;DHT22;17914;52.484;13.424;2024-02-14T00:22:40;21.40;50.50
30899;DHT22;17914;52.484;13.424;2024-02-14T00:25:09;21.40;50.50
30899;DHT22;17914;52.484;13.424;2024-02-14T00:27:37;21.40;50.50
30899;DHT22;17914;52.484;13.424;2024-02-14T00:30:06;21.30;50.30
30899;DHT22;17914;52.484;13.424;2024-02-14T00:32:36;21.30;50.20
30899;DHT22;17914;52.484;13.424;2024-02-14T00:35:05;21.30;50.10
30899;DHT22;17914;52.484;13.424;2024-02-14T00:37:34;21.20;50.10
30899;DHT22;17914;52.484;13.424;2024-02-14T00:40:03;21.20;49.90
30899;DHT22;17914;52.484;13.424;2024-02-14T00:42:32;21.20;50.00
30899;DHT22;17914;52.484;13.424;2024-02-14T00:45:01;21.30;50.10
30899;DHT22;17914;52.484;13.424;2024-02-14T00:47:29;21.30;50.10
30899;DHT22;17914;52.484;13.424;2024-02-14T00:50:00;21.30;49.70
30899;DHT22;17914;52.484;13.424;2024-02-14T00:52:28;21.20;49.80
30899;DHT22;17914;52.484;13.424;2024-02-14T00:54:56;21.30;49.80
30899;DHT22;17914;52.484;13.424;2024-02-14T00:57:25;21.20;49.80
30899;DHT22;17914;52.484;13.424;2024-02-14T00:59:55;21.20;49.80
30899;DHT22;17914;52.484;13.424;2024-02-14T01:02:23;21.20;49.90
30899;DHT22;17914;52.484;13.424;2024-02-14T01:04:53;21.30;49.90
30899;DHT22;17914;52.484;13.424;2024-02-14T01:07:21;21.20;49.90
30899;DHT22;17914;52.484;13.424;2024-02-14T01:09:49;21.20;49.90
30899;DHT22;17914;52.484;13.424;2024-02-14T01:12:17;21.20;49.90
30899;DHT22;17914;52.484;13.424;2024-02-14T01:14:45;21.20;49.90
30899;DHT22;17914;52.484;13.424;2024-02-14T01:17:14;21.20;49.80
30899;DHT22;17914;52.484;13.424;2024-02-14T01:19:42;21.20;49.70
30899;DHT22;17914;52.484;13.424;2024-02-14T01:22:10;21.20;49.60
30899;DHT22;17914;52.484;13.424;2024-02-14T01:24:38;21.10;49.60
30899;DHT22;17914;52.484;13.424;2024-02-14T01:27:09;21.10;49.50
30899;DHT22;17914;52.484;13.424;2024-02-14T01:29:37;21.10;49.60
30899;DHT22;17914;52.484;13.424;2024-02-14T01:32:05;21.10;49.50
30899;DHT22;17914;52.484;13.424;2024-02-14T01:34:35;21.10;49.50
30899;DHT22;17914;52.484;13.424;2024-02-14T01:37:03;21.10;49.60
30899;DHT22;17914;52.484;13.424;2024-02-14T01:39:31;21.10;49.50
30899;DHT22;17914;52.484;13.424;2024-02-14T01:41:59;21.00;49.40
30899;DHT22;17914;52.484;13.424;2024-02-14T01:44:27;21.10;49.40
30899;DHT22;17914;52.484;13.424;2024-02-14T01:46:55;21.10;49.40
30899;DHT22;17914;52.484;13.424;2024-02-14T01:49:23;21.10;49.40
30899;DHT22;17914;52.484;13.424;2024-02-14T01:51:59;21.10;49.40
30899;DHT22;17914;52.484;13.424;2024-02-14T01:54:29;21.10;49.40
30899;DHT22;17914;52.484;13.424;2024-02-14T01:56:58;21.10;49.30
30899;DHT22;17914;52.484;13.424;2024-02-14T01:59:26;21.00;49.20
30899;DHT22;17914;52.484;13.424;2024-02-14T02:01:55;21.00;49.80
30899;DHT22;17914;52.484;13.424;2024-02-14T02:04:23;21.00;49.30
30899;DHT22;17914;52.484;13.424;2024-02-14T02:06:51;21.10;49.40
30899;DHT22;17914;52.484;13.424;2024-02-14T02:09:24;21.00;49.20
30899;DHT22;17914;52.484;13.424;2024-02-14T02:11:53;21.00;49.20
30899;DHT22;17914;52.484;13.424;2024-02-14T02:14:23;21.00;49.20
30899;DHT22;17914;52.484;13.424;2024-02-14T02:16:51;21.00;49.20
30899;DHT22;17914;52.484;13.424;2024-02-14T02:19:20;21.00;49.20
30899;DHT22;17914;52.484;13.424;2024-02-14T02:21:48;21.00;49.30
30899;DHT22;17914;52.484;13.424;2024-02-14T02:24:17;21.00;49.30
30899;DHT22;17914;52.484;13.424;2024-02-14T02:26:45;21.00;49.30
30899;DHT22;17914;52.484;13.424;2024-02-14T02:29:13;21.00;49.30
30899;DHT22;17914;52.484;13.424;2024-02-14T02:31:42;21.00;49.30
30899;DHT22;17914;52.484;13.424;2024-02-14T02:34:10;20.90;49.30
30899;DHT22;17914;52.484;13.424;2024-02-14T02:36:39;21.00;49.40
30899;DHT22;17914;52.484;13.424;2024-02-14T02:39:08;20.90;49.40
30899;DHT22;17914;52.484;13.424;2024-02-14T02:41:37;21.00;49.30
30899;DHT22;17914;52.484;13.424;2024-02-14T02:44:05;20.90;49.20
30899;DHT22;17914;52.484;13.424;2024-02-14T02:46:34;20.90;49.20
30899;DHT22;17914;52.484;13.424;2024-02-14T02:49:02;20.90;49.20
30899;DHT22;17914;52.484;13.424;2024-02-14T02:51:30;20.90;49.10
30899;DHT22;17914;52.484;13.424;2024-02-14T02:53:58;20.80;49.10
30899;DHT22;17914;52.484;13.424;2024-02-14T02:56:26;20.80;49.20
30899;DHT22;17914;52.484;13.424;2024-02-14T02:58:56;20.80;49.20
30899;DHT22;17914;52.484;13.424;2024-02-14T03:01:24;20.80;49.10
30899;DHT22;17914;52.484;13.424;2024-02-14T03:03:54;20.80;49.60
30899;DHT22;17914;52.484;13.424;2024-02-14T03:06:23;20.80;49.00
30899;DHT22;17914;52.484;13.424;2024-02-14T03:08:51;20.80;49.00
30899;DHT22;17914;52.484;13.424;2024-02-14T03:11:22;20.80;48.80
30899;DHT22;17914;52.484;13.424;2024-02-14T03:13:51;20.80;48.80
30899;DHT22;17914;52.484;13.424;2024-02-14T03:16:21;20.70;49.50
30899;DHT22;17914;52.484;13.424;2024-02-14T03:18:51;20.70;48.70
30899;DHT22;17914;52.484;13.424;2024-02-14T03:21:20;20.70;48.50
30899;DHT22;17914;52.484;13.424;2024-02-14T03:23:49;20.70;48.50
30899;DHT22;17914;52.484;13.424;2024-02-14T03:26:17;20.60;48.20
30899;DHT22;17914;52.484;13.424;2024-02-14T03:28:45;20.60;48.20
30899;DHT22;17914;52.484;13.424;2024-02-14T03:31:13;20.50;48.40
30899;DHT22;17914;52.484;13.424;2024-02-14T03:33:44;20.50;48.30
30899;DHT22;17914;52.484;13.424;2024-02-14T03:36:12;20.60;48.20
30899;DHT22;17914;52.484;13.424;2024-02-14T03:38:40;20.50;47.90
30899;DHT22;17914;52.484;13.424;2024-02-14T03:41:08;20.50;48.10
30899;DHT22;17914;52.484;13.424;2024-02-14T03:43:36;20.40;47.90
30899;DHT22;17914;52.484;13.424;2024-02-14T03:46:04;20.40;48.00
30899;DHT22;17914;52.484;13.424;2024-02-14T03:48:32;20.30;48.00
30899;DHT22;17914;52.484;13.424;2024-02-14T03:51:02;20.30;48.10
30899;DHT22;17914;52.484;13.424;2024-02-14T03:53:31;20.40;48.20
30899;DHT22;17914;52.484;13.424;2024-02-14T03:56:00;20.40;48.30
30899;DHT22;17914;52.484;13.424;2024-02-14T03:58:28;20.40;48.10
30899;DHT22;17914;52.484;13.424;2024-02-14T04:00:57;20.30;48.10
30899;DHT22;17914;52.484;13.424;2024-02-14T04:03:25;20.30;48.30
30899;DHT22;17914;52.484;13.424;2024-02-14T04:05:56;20.20;48.10
30899;DHT22;17914;52.484;13.424;2024-02-14T04:08:25;20.20;48.10
30899;DHT22;17914;52.484;13.424;2024-02-14T04:10:53;20.10;48.20
30899;DHT22;17914;52.484;13.424;2024-02-14T04:13:21;20.10;48.20
30899;DHT22;17914;52.484;13.424;2024-02-14T04:15:49;20.10;48.40
30899;DHT22;17914;52.484;13.424;2024-02-14T04:18:18;20.20;48.50
30899;DHT22;17914;52.484;13.424;2024-02-14T04:20:46;20.30;48.50
30899;DHT22;17914;52.484;13.424;2024-02-14T04:23:15;20.30;48.50
30899;DHT22;17914;52.484;13.424;2024-02-14T04:25:44;20.40;48.50
30899;DHT22;17914;52.484;13.424;2024-02-14T04:28:12;20.40;48.70
30899;DHT22;17914;52.484;13.424;2024-02-14T04:30:40;20.40;48.50
30899;DHT22;17914;52.484;13.424;2024-02-14T04:33:09;20.40;48.40
30899;DHT22;17914;52.484;13.424;2024-02-14T04:35:40;20.40;48.40
30899;DHT22;17914;52.484;13.424;2024-02-14T04:38:08;20.30;48.40
30899;DHT22;17914;52.484;13.424;2024-02-14T04:40:36;20.30;48.60
30899;DHT22;17914;52.484;13.424;2024-02-14T04:43:06;20.40;48.70
30899;DHT22;17914;52.484;13.424;2024-02-14T04:45:34;20.40;48.70
30899;DHT22;17914;52.484;13.424;2024-02-14T04:48:03;20.40;48.60
30899;DHT22;17914;52.484;13.424;2024-02-14T04:50:31;20.40;48.40
30899;DHT22;17914;52.484;13.424;2024-02-14T04:52:59;20.40;48.30
30899;DHT22;17914;52.484;13.424;2024-02-14T04:55:27;20.30;48.50
30899;DHT22;17914;52.484;13.424;2024-02-14T04:57:56;20.30;48.20
30899;DHT22;17914;52.484;13.424;2024-02-14T05:00:26;20.30;48.10
30899;DHT22;17914;52.484;13.424;2024-02-14T05:02:54;20.30;48.10
30899;DHT22;17914;52.484;13.424;2024-02-14T05:05:23;20.30;48.00
30899;DHT22;17914;52.484;13.424;2024-02-14T05:07:52;20.30;48.00
30899;DHT22;17914;52.484;13.424;2024-02-14T05:10:20;20.30;47.50
30899;DHT22;17914;52.484;13.424;2024-02-14T05:12:48;20.20;47.80
30899;DHT22;17914;52.484;13.424;2024-02-14T05:15:16;20.10;48.00
30899;DHT22;17914;52.484;13.424;2024-02-14T05:17:46;20.20;48.00
30899;DHT22;17914;52.484;13.424;2024-02-14T05:20:17;20.20;47.90
30899;DHT22;17914;52.484;13.424;2024-02-14T05:22:45;20.10;47.60
30899;DHT22;17914;52.484;13.424;2024-02-14T05:25:13;20.10;47.90
30899;DHT22;17914;52.484;13.424;2024-02-14T05:27:41;20.00;47.90
30899;DHT22;17914;52.484;13.424;2024-02-14T05:30:09;20.00;47.50
30899;DHT22;17914;52.484;13.424;2024-02-14T05:32:37;20.00;47.70
30899;DHT22;17914;52.484;13.424;2024-02-14T05:35:08;19.90;47.10
30899;DHT22;17914;52.484;13.424;2024-02-14T05:37:36;19.80;47.90
30899;DHT22;17914;52.484;13.424;2024-02-14T05:40:06;19.80;47.70
30899;DHT22;17914;52.484;13.424;2024-02-14T05:42:34;19.90;47.80
30899;DHT22;17914;52.484;13.424;2024-02-14T05:45:03;19.90;47.40
30899;DHT22;17914;52.484;13.424;2024-02-14T05:47:32;19.90;47.60
30899;DHT22;17914;52.484;13.424;2024-02-14T05:50:00;19.90;47.60
30899;DHT22;17914;52.484;13.424;2024-02-14T05:52:30;19.80;47.30
30899;DHT22;17914;52.484;13.424;2024-02-14T05:54:58;19.80;47.70
30899;DHT22;17914;52.484;13.424;2024-02-14T05:57:26;19.80;47.70
30899;DHT22;17914;52.484;13.424;2024-02-14T05:59:54;19.80;47.60
30899;DHT22;17914;52.484;13.424;2024-02-14T06:02:23;19.80;47.40
30899;DHT22;17914;52.484;13.424;2024-02-14T06:04:51;19.80;47.20
30899;DHT22;17914;52.484;13.424;2024-02-14T06:07:19;19.80;47.40
30899;DHT22;17914;52.484;13.424;2024-02-14T06:09:49;19.80;47.30
30899;DHT22;17914;52.484;13.424;2024-02-14T06:12:17;19.80;47.20
30899;DHT22;17914;52.484;13.424;2024-02-14T06:14:48;19.80;47.30
30899;DHT22;17914;52.484;13.424;2024-02-14T06:17:16;19.70;46.90
30899;DHT22;17914;52.484;13.424;2024-02-14T06:19:44;19.60;47.10
30899;DHT22;17914;52.484;13.424;2024-02-14T06:22:12;19.70;47.30
30899;DHT22;17914;52.484;13.424;2024-02-14T06:24:40;19.70;47.30
30899;DHT22;17914;52.484;13.424;2024-02-14T06:27:10;19.70;47.10
30899;DHT22;17914;52.484;13.424;2024-02-14T06:29:38;19.70;47.20
30899;DHT22;17914;52.484;13.424;2024-02-14T06:32:06;19.80;47.10
30899;DHT22;17914;52.484;13.424;2024-02-14T06:34:34;19.70;46.90
30899;DHT22;17914;52.484;13.424;2024-02-14T06:37:03;19.80;47.30
30899;DHT22;17914;52.484;13.424;2024-02-14T06:39:31;19.80;47.20
30899;DHT22;17914;52.484;13.424;2024-02-14T06:41:59;19.80;47.20
30899;DHT22;17914;52.484;13.424;2024-02-14T06:44:29;19.80;46.90
30899;DHT22;17914;52.484;13.424;2024-02-14T06:46:59;19.80;47.10
30899;DHT22;17914;52.484;13.424;2024-02-14T06:49:27;19.70;47.10
30899;DHT22;17914;52.484;13.424;2024-02-14T06:51:55;19.70;47.50
30899;DHT22;17914;52.484;13.424;2024-02-14T06:54:23;19.80;47.50
30899;DHT22;17914;52.484;13.424;2024-02-14T06:56:51;19.80;47.20
30899;DHT22;17914;52.484;13.424;2024-02-14T06:59:19;19.60;47.20
30899;DHT22;17914;52.484;13.424;2024-02-14T07:01:49;19.70;47.20
30899;DHT22;17914;52.484;13.424;2024-02-14T07:04:19;19.60;47.30
30899;DHT22;17914;52.484;13.424;2024-02-14T07:06:53;19.60;47.40
30899;DHT22;17914;52.484;13.424;2024-02-14T07:09:21;19.60;47.40
30899;DHT22;17914;52.484;13.424;2024-02-14T07:11:49;19.60;47.30
30899;DHT22;17914;52.484;13.424;2024-02-14T07:14:17;19.60;47.70
30899;DHT22;17914;52.484;13.424;2024-02-14T07:16:45;19.60;47.50
30899;DHT22;17914;52.484;13.424;2024-02-14T07:19:15;19.70;47.70
30899;DHT22;17914;52.484;13.424;2024-02-14T07:21:43;19.60;47.30
30899;DHT22;17914;52.484;13.424;2024-02-14T07:24:11;19.60;47.40
30899;DHT22;17914;52.484;13.424;2024-02-14T07:26:39;19.60;47.20
30899;DHT22;17914;52.484;13.424;2024-02-14T07:29:10;19.60;47.40
30899;DHT22;17914;52.484;13.424;2024-02-14T07:31:38;19.60;47.60
30899;DHT22;17914;52.484;13.424;2024-02-14T07:34:06;19.60;47.70
30899;DHT22;17914;52.484;13.424;2024-02-14T07:36:37;19.70;47.90
30899;DHT22;17914;52.484;13.424;2024-02-14T07:39:08;19.80;47.90
30899;DHT22;17914;52.484;13.424;2024-02-14T07:41:36;19.80;48.00
30899;DHT22;17914;52.484;13.424;2024-02-14T07:44:04;19.80;48.10
30899;DHT22;17914;52.484;13.424;2024-02-14T07:46:32;19.80;48.10
30899;DHT22;17914;52.484;13.424;2024-02-14T07:49:00;19.90;48.50
30899;DHT22;17914;52.484;13.424;2024-02-14T07:51:28;19.90;48.80
30899;DHT22;17914;52.484;13.424;2024-02-14T07:54:02;19.90;49.00
30899;DHT22;17914;52.484;13.424;2024-02-14T07:56:30;19.90;48.80
30899;DHT22;17914;52.484;13.424;2024-02-14T07:58:59;20.00;48.90
30899;DHT22;17914;52.484;13.424;2024-02-14T08:01:27;20.00;48.90
30899;DHT22;17914;52.484;13.424;2024-02-14T08:03:55;20.00;48.90
30899;DHT22;17914;52.484;13.424;2024-02-14T08:06:23;20.00;48.90
30899;DHT22;17914;52.484;13.424;2024-02-14T08:08:51;20.00;48.80
30899;DHT22;17914;52.484;13.424;2024-02-14T08:11:25;20.00;48.90
30899;DHT22;17914;52.484;13.424;2024-02-14T08:13:53;20.00;48.80
30899;DHT22;17914;52.484;13.424;2024-02-14T08:16:21;20.00;48.90
30899;DHT22;17914;52.484;13.424;2024-02-14T08:18:49;20.00;48.60
30899;DHT22;17914;52.484;13.424;2024-02-14T08:21:21;20.10;48.50
30899;DHT22;17914;52.484;13.424;2024-02-14T08:23:53;20.00;48.10
30899;DHT22;17914;52.484;13.424;2024-02-14T08:26:25;20.00;48.10
30899;DHT22;17914;52.484;13.424;2024-02-14T08:28:54;20.00;48.10
30899;DHT22;17914;52.484;13.424;2024-02-14T08:31:22;20.00;48.10
30899;DHT22;17914;52.484;13.424;2024-02-14T08:33:50;20.00;48.00
30899;DHT22;17914;52.484;13.424;2024-02-14T08:36:23;20.00;47.90
30899;DHT22;17914;52.484;13.424;2024-02-14T08:38:52;20.00;47.90
30899;DHT22;17914;52.484;13.424;2024-02-14T08:41:20;20.00;47.90
30899;DHT22;17914;52.484;13.424;2024-02-14T08:43:51;20.00;47.90
30899;DHT22;17914;52.484;13.424;2024-02-14T08:46:19;20.10;48.10
30899;DHT22;17914;52.484;13.424;2024-02-14T08:48:47;20.20;49.30
30899;DHT22;17914;52.484;13.424;2024-02-14T08:51:16;20.30;48.70
30899;DHT22;17914;52.484;13.424;2024-02-14T08:53:47;20.20;48.80
30899;DHT22;17914;52.484;13.424;2024-02-14T08:56:15;20.20;49.00
30899;DHT22;17914;52.484;13.424;2024-02-14T08:58:43;20.20;49.10
30899;DHT22;17914;52.484;13.424;2024-02-14T09:01:13;20.20;49.10
30899;DHT22;17914;52.484;13.424;2024-02-14T09:03:42;20.30;49.30
30899;DHT22;17914;52.484;13.424;2024-02-14T09:06:16;20.30;49.20
30899;DHT22;17914;52.484;13.424;2024-02-14T09:08:45;20.40;49.10
30899;DHT22;17914;52.484;13.424;2024-02-14T09:11:13;20.40;49.10
30899;DHT22;17914;52.484;13.424;2024-02-14T09:13:41;20.50;49.50
30899;DHT22;17914;52.484;13.424;2024-02-14T09:16:10;20.50;49.00
30899;DHT22;17914;52.484;13.424;2024-02-14T09:18:39;20.50;49.00
30899;DHT22;17914;52.484;13.424;2024-02-14T09:21:08;20.50;49.20
30899;DHT22;17914;52.484;13.424;2024-02-14T09:23:36;20.50;49.50
30899;DHT22;17914;52.484;13.424;2024-02-14T09:26:06;20.50;49.00
30899;DHT22;17914;52.484;13.424;2024-02-14T09:28:34;20.40;49.10
30899;DHT22;17914;52.484;13.424;2024-02-14T09:31:03;20.40;49.20
30899;DHT22;17914;52.484;13.424;2024-02-14T09:33:31;20.40;49.10
30899;DHT22;17914;52.484;13.424;2024-02-14T09:36:01;20.40;49.10
30899;DHT22;17914;52.484;13.424;2024-02-14T09:38:29;20.40;49.30
30899;DHT22;17914;52.484;13.424;2024-02-14T09:41:05;20.40;49.40
30899;DHT22;17914;52.484;13.424;2024-02-14T09:43:36;20.30;49.50
30899;DHT22;17914;52.484;13.424;2024-02-14T09:46:06;20.30;49.60
30899;DHT22;17914;52.484;13.424;2024-02-14T09:48:35;20.30;49.60
30899;DHT22;17914;52.484;13.424;2024-02-14T09:51:07;20.30;49.70
30899;DHT22;17914;52.484;13.424;2024-02-14T09:53:36;20.30;49.80
30899;DHT22;17914;52.484;13.424;2024-02-14T09:56:05;20.30;49.80
30899;DHT22;17914;52.484;13.424;2024-02-14T09:58:34;20.30;49.80
30899;DHT22;17914;52.484;13.424;2024-02-14T10:01:03;20.30;49.90
30899;DHT22;17914;52.484;13.424;2024-02-14T10:03:31;20.20;49.80
30899;DHT22;17914;52.484;13.424;2024-02-14T10:05:59;20.20;49.80
30899;DHT22;17914;52.484;13.424;2024-02-14T10:08:29;20.20;49.80
30899;DHT22;17914;52.484;13.424;2024-02-14T10:10:58;20.20;49.90
30899;DHT22;17914;52.484;13.424;2024-02-14T10:13:27;20.20;49.90
30899;DHT22;17914;52.484;13.424;2024-02-14T10:15:56;20.20;49.90
30899;DHT22;17914;52.484;13.424;2024-02-14T10:18:24;20.20;49.90
30899;DHT22;17914;52.484;13.424;2024-02-14T10:20:54;20.20;49.90
30899;DHT22;17914;52.484;13.424;2024-02-14T10:23:23;20.20;49.90
30899;DHT22;17914;52.484;13.424;2024-02-14T10:25:54;20.20;50.00
30899;DHT22;17914;52.484;13.424;2024-02-14T10:28:23;20.20;50.00
30899;DHT22;17914;52.484;13.424;2024-02-14T10:31:02;20.20;50.00
30899;DHT22;17914;52.484;13.424;2024-02-14T10:33:30;20.20;49.90
30899;DHT22;17914;52.484;13.424;2024-02-14T10:35:59;20.20;49.90
30899;DHT22;17914;52.484;13.424;2024-02-14T10:38:31;20.20;49.90
30899;DHT22;17914;52.484;13.424;2024-02-14T10:41:02;20.20;50.00
30899;DHT22;17914;52.484;13.424;2024-02-14T10:43:33;20.20;49.90
30899;DHT22;17914;52.484;13.424;2024-02-14T10:46:16;20.10;49.90
30899;DHT22;17914;52.484;13.424;2024-02-14T10:48:46;20.10;49.90
30899;DHT22;17914;52.484;13.424;2024-02-14T10:51:15;20.10;49.90
30899;DHT22;17914;52.484;13.424;2024-02-14T10:53:45;20.10;50.00
30899;DHT22;17914;52.484;13.424;2024-02-14T10:56:17;20.10;50.00
30899;DHT22;17914;52.484;13.424;2024-02-14T10:58:46;20.10;50.00
30899;DHT22;17914;52.484;13.424;2024-02-14T11:01:15;20.10;50.00
30899;DHT22;17914;52.484;13.424;2024-02-14T11:03:44;20.10;50.00
30899;DHT22;17914;52.484;13.424;2024-02-14T11:06:15;20.10;50.00
30899;DHT22;17914;52.484;13.424;2024-02-14T11:08:56;20.10;50.00
30899;DHT22;17914;52.484;13.424;2024-02-14T11:11:28;20.10;50.00
30899;DHT22;17914;52.484;13.424;2024-02-14T11:13:57;20.20;50.00
30899;DHT22;17914;52.484;13.424;2024-02-14T11:16:26;20.20;50.00
30899;DHT22;17914;52.484;13.424;2024-02-14T11:19:06;20.20;49.90
30899;DHT22;17914;52.484;13.424;2024-02-14T11:21:36;20.20;49.90
30899;DHT22;17914;52.484;13.424;2024-02-14T11:24:06;20.20;49.90
30899;DHT22;17914;52.484;13.424;2024-02-14T11:26:45;20.10;49.90
30899;DHT22;17914;52.484;13.424;2024-02-14T11:29:14;20.20;49.90
30899;DHT22;17914;52.484;13.424;2024-02-14T11:31:48;20.10;49.90
30899;DHT22;17914;52.484;13.424;2024-02-14T11:34:25;20.10;50.00
30899;DHT22;17914;52.484;13.424;2024-02-14T11:36:53;20.10;50.00
30899;DHT22;17914;52.484;13.424;2024-02-14T11:39:21;20.10;50.00
30899;DHT22;17914;52.484;13.424;2024-02-14T11:41:51;20.10;50.10
30899;DHT22;17914;52.484;13.424;2024-02-14T11:44:19;20.10;50.30
30899;DHT22;17914;52.484;13.424;2024-02-14T11:46:48;20.00;50.60
30899;DHT22;17914;52.484;13.424;2024-02-14T11:49:16;20.00;50.80
30899;DHT22;17914;52.484;13.424;2024-02-14T11:51:45;19.90;51.60
30899;DHT22;17914;52.484;13.424;2024-02-14T11:54:14;20.00;51.20
30899;DHT22;17914;52.484;13.424;2024-02-14T11:56:42;20.00;51.20
30899;DHT22;17914;52.484;13.424;2024-02-14T11:59:12;20.00;51.40
30899;DHT22;17914;52.484;13.424;2024-02-14T12:01:42;19.90;51.40
30899;DHT22;17914;52.484;13.424;2024-02-14T12:04:10;20.00;51.70
30899;DHT22;17914;52.484;13.424;2024-02-14T12:06:40;20.00;51.70
30899;DHT22;17914;52.484;13.424;2024-02-14T12:09:09;20.00;51.70
30899;DHT22;17914;52.484;13.424;2024-02-14T12:11:41;20.00;51.70
30899;DHT22;17914;52.484;13.424;2024-02-14T12:14:12;20.00;51.80
30899;DHT22;17914;52.484;13.424;2024-02-14T12:16:40;20.00;51.70
30899;DHT22;17914;52.484;13.424;2024-02-14T12:19:14;20.00;51.80
30899;DHT22;17914;52.484;13.424;2024-02-14T12:21:44;20.00;51.70
30899;DHT22;17914;52.484;13.424;2024-02-14T12:24:13;20.10;51.90
30899;DHT22;17914;52.484;13.424;2024-02-14T12:26:42;20.10;51.90
30899;DHT22;17914;52.484;13.424;2024-02-14T12:29:12;20.10;51.80
30899;DHT22;17914;52.484;13.424;2024-02-14T12:31:41;20.10;52.10
30899;DHT22;17914;52.484;13.424;2024-02-14T12:34:11;20.10;52.00
30899;DHT22;17914;52.484;13.424;2024-02-14T12:36:40;20.20;51.90
30899;DHT22;17914;52.484;13.424;2024-02-14T12:39:08;20.30;51.80
30899;DHT22;17914;52.484;13.424;2024-02-14T12:41:39;20.30;51.70
30899;DHT22;17914;52.484;13.424;2024-02-14T12:44:07;20.40;51.60
30899;DHT22;17914;52.484;13.424;2024-02-14T12:46:37;20.40;51.50
30899;DHT22;17914;52.484;13.424;2024-02-14T12:49:05;20.40;51.50
30899;DHT22;17914;52.484;13.424;2024-02-14T12:51:36;20.40;51.60
30899;DHT22;17914;52.484;13.424;2024-02-14T12:54:05;20.40;51.70
30899;DHT22;17914;52.484;13.424;2024-02-14T12:56:34;20.50;51.70
30899;DHT22;17914;52.484;13.424;2024-02-14T12:59:02;20.50;51.50
30899;DHT22;17914;52.484;13.424;2024-02-14T13:01:30;20.60;51.50
30899;DHT22;17914;52.484;13.424;2024-02-14T13:04:00;20.60;51.80
30899;DHT22;17914;52.484;13.424;2024-02-14T13:06:32;20.60;52.20
30899;DHT22;17914;52.484;13.424;2024-02-14T13:09:00;20.60;52.30
30899;DHT22;17914;52.484;13.424;2024-02-14T13:11:29;20.80;52.20
30899;DHT22;17914;52.484;13.424;2024-02-14T13:13:58;20.90;52.00
30899;DHT22;17914;52.484;13.424;2024-02-14T13:16:26;21.00;51.80
30899;DHT22;17914;52.484;13.424;2024-02-14T13:18:54;21.20;51.70
30899;DHT22;17914;52.484;13.424;2024-02-14T13:21:24;21.20;51.50
30899;DHT22;17914;52.484;13.424;2024-02-14T13:23:53;21.40;51.40
30899;DHT22;17914;52.484;13.424;2024-02-14T13:26:21;21.40;51.30
30899;DHT22;17914;52.484;13.424;2024-02-14T13:28:49;21.50;51.20
30899;DHT22;17914;52.484;13.424;2024-02-14T13:31:17;21.50;51.00
30899;DHT22;17914;52.484;13.424;2024-02-14T13:33:46;21.60;51.10
30899;DHT22;17914;52.484;13.424;2024-02-14T13:36:14;21.60;50.90
30899;DHT22;17914;52.484;13.424;2024-02-14T13:38:45;21.70;50.90
30899;DHT22;17914;52.484;13.424;2024-02-14T13:41:13;21.70;50.80
30899;DHT22;17914;52.484;13.424;2024-02-14T13:43:42;21.70;50.70
30899;DHT22;17914;52.484;13.424;2024-02-14T13:46:11;21.90;50.80
30899;DHT22;17914;52.484;13.424;2024-02-14T13:48:39;21.90;50.60
30899;DHT22;17914;52.484;13.424;2024-02-14T13:51:07;21.90;51.10
30899;DHT22;17914;52.484;13.424;2024-02-14T13:53:37;22.00;50.50
30899;DHT22;17914;52.484;13.424;2024-02-14T13:56:07;22.00;50.50
30899;DHT22;17914;52.484;13.424;2024-02-14T13:58:35;22.00;50.40
30899;DHT22;17914;52.484;13.424;2024-02-14T14:01:05;22.10;50.30
30899;DHT22;17914;52.484;13.424;2024-02-14T14:03:35;22.10;50.30
30899;DHT22;17914;52.484;13.424;2024-02-14T14:06:04;22.20;50.10
30899;DHT22;17914;52.484;13.424;2024-02-14T14:08:35;22.20;50.10
30899;DHT22;17914;52.484;13.424;2024-02-14T14:11:03;22.20;50.10
30899;DHT22;17914;52.484;13.424;2024-02-14T14:13:33;22.20;50.10
30899;DHT22;17914;52.484;13.424;2024-02-14T14:16:01;22.20;50.10
30899;DHT22;17914;52.484;13.424;2024-02-14T14:18:30;22.20;50.20
30899;DHT22;17914;52.484;13.424;2024-02-14T14:20:58;22.20;50.10
30899;DHT22;17914;52.484;13.424;2024-02-14T14:23:26;22.20;50.20
30899;DHT22;17914;52.484;13.424;2024-02-14T14:25:54;22.30;50.10
30899;DHT22;17914;52.484;13.424;2024-02-14T14:28:23;22.30;50.00
30899;DHT22;17914;52.484;13.424;2024-02-14T14:30:53;22.20;50.00
30899;DHT22;17914;52.484;13.424;2024-02-14T14:33:21;22.30;50.10
30899;DHT22;17914;52.484;13.424;2024-02-14T14:35:50;22.20;50.00
30899;DHT22;17914;52.484;13.424;2024-02-14T14:38:20;22.20;50.10
30899;DHT22;17914;52.484;13.424;2024-02-14T14:40:48;22.20;50.00
30899;DHT22;17914;52.484;13.424;2024-02-14T14:43:16;22.20;50.10
30899;DHT22;17914;52.484;13.424;2024-02-14T14:45:45;22.20;50.70
30899;DHT22;17914;52.484;13.424;2024-02-14T14:48:17;22.20;50.10
30899;DHT22;17914;52.484;13.424;2024-02-14T14:50:46;22.20;50.10
30899;DHT22;17914;52.484;13.424;2024-02-14T14:53:15;22.20;50.20
30899;DHT22;17914;52.484;13.424;2024-02-14T14:55:51;22.20;50.20
30899;DHT22;17914;52.484;13.424;2024-02-14T14:58:19;22.20;50.30
30899;DHT22;17914;52.484;13.424;2024-02-14T15:00:52;22.20;50.30
30899;DHT22;17914;52.484;13.424;2024-02-14T15:03:23;22.10;50.30
30899;DHT22;17914;52.484;13.424;2024-02-14T15:05:51;22.10;50.30
30899;DHT22;17914;52.484;13.424;2024-02-14T15:08:20;22.10;50.30
30899;DHT22;17914;52.484;13.424;2024-02-14T15:10:52;22.10;50.30
30899;DHT22;17914;52.484;13.424;2024-02-14T15:13:22;22.10;50.40
30899;DHT22;17914;52.484;13.424;2024-02-14T15:15:50;22.10;50.60
30899;DHT22;17914;52.484;13.424;2024-02-14T15:18:19;22.10;50.60
30899;DHT22;17914;52.484;13.424;2024-02-14T15:20:48;22.10;50.70
30899;DHT22;17914;52.484;13.424;2024-02-14T15:23:16;22.10;50.80
30899;DHT22;17914;52.484;13.424;2024-02-14T15:25:45;22.10;50.80